Terminal Aerodrome Forecast
Issued by NWS

Home | Current Version | Previous Version | Text Only | Print | Product List | Glossary On
Versions: 1 2 3 4 5 6 7 8 9 10 11 12 13 14 15 16 17 18
000
FTUS42 KILM 282300
TAFCRE
TAF
KCRE 282320Z 2900/2924 23014G20KT P6SM VCTS SCT040CB BKN200
      TEMPO 2900/2901 4SM -SHRA BKN040
     FM290200 26008KT P6SM BKN040 BKN250
     FM290800 01005KT P6SM SCT040
     FM291400 02007KT P6SM FEW040=

USA.gov is the U.S. government's official web portal to all federal, state and local government web resources and services.